sensor_id;sensor_type;location;lat;lon;timestamp;P1;durP1;ratioP1;P2;durP2;ratioP2
2892;SDS011;1456;51.840;12.184;2022-12-18T00:01:27;1.90;;;1.33;;
2892;SDS011;1456;51.840;12.184;2022-12-18T00:03:57;1.20;;;1.20;;
2892;SDS011;1456;51.840;12.184;2022-12-18T00:06:25;3.73;;;2.53;;
2892;SDS011;1456;51.840;12.184;2022-12-18T00:08:52;1.57;;;1.27;;
2892;SDS011;1456;51.840;12.184;2022-12-18T00:11:19;1.57;;;1.10;;
2892;SDS011;1456;51.840;12.184;2022-12-18T00:13:47;1.87;;;1.77;;
2892;SDS011;1456;51.840;12.184;2022-12-18T00:16:18;2.23;;;2.13;;
2892;SDS011;1456;51.840;12.184;2022-12-18T00:18:46;0.73;;;0.73;;
2892;SDS011;1456;51.840;12.184;2022-12-18T00:21:18;1.70;;;1.40;;
2892;SDS011;1456;51.840;12.184;2022-12-18T00:23:48;2.00;;;1.90;;
2892;SDS011;1456;51.840;12.184;2022-12-18T00:26:15;0.40;;;0.40;;
2892;SDS011;1456;51.840;12.184;2022-12-18T00:28:43;2.77;;;1.43;;
2892;SDS011;1456;51.840;12.184;2022-12-18T00:31:11;1.90;;;1.07;;
2892;SDS011;1456;51.840;12.184;2022-12-18T00:33:39;1.83;;;1.73;;
2892;SDS011;1456;51.840;12.184;2022-12-18T00:36:06;0.80;;;0.80;;
2892;SDS011;1456;51.840;12.184;2022-12-18T00:38:35;0.77;;;0.77;;
2892;SDS011;1456;51.840;12.184;2022-12-18T00:41:01;1.03;;;1.03;;
2892;SDS011;1456;51.840;12.184;2022-12-18T00:43:27;3.90;;;3.63;;
2892;SDS011;1456;51.840;12.184;2022-12-18T00:45:53;1.97;;;1.97;;
2892;SDS011;1456;51.840;12.184;2022-12-18T00:48:19;1.23;;;1.23;;
2892;SDS011;1456;51.840;12.184;2022-12-18T00:50:47;1.73;;;1.73;;
2892;SDS011;1456;51.840;12.184;2022-12-18T00:53:13;0.90;;;0.90;;
2892;SDS011;1456;51.840;12.184;2022-12-18T00:55:39;0.83;;;0.83;;
2892;SDS011;1456;51.840;12.184;2022-12-18T00:58:06;1.90;;;1.80;;
2892;SDS011;1456;51.840;12.184;2022-12-18T01:00:34;0.60;;;0.60;;
2892;SDS011;1456;51.840;12.184;2022-12-18T01:03:01;12.27;;;3.50;;
2892;SDS011;1456;51.840;12.184;2022-12-18T01:05:27;1.30;;;1.27;;
2892;SDS011;1456;51.840;12.184;2022-12-18T01:07:53;2.13;;;2.03;;
2892;SDS011;1456;51.840;12.184;2022-12-18T01:10:20;3.17;;;1.37;;
2892;SDS011;1456;51.840;12.184;2022-12-18T01:12:47;1.80;;;0.80;;
2892;SDS011;1456;51.840;12.184;2022-12-18T01:15:13;0.60;;;0.60;;
2892;SDS011;1456;51.840;12.184;2022-12-18T01:17:41;1.27;;;1.27;;
2892;SDS011;1456;51.840;12.184;2022-12-18T01:20:07;1.93;;;1.83;;
2892;SDS011;1456;51.840;12.184;2022-12-18T01:22:34;2.30;;;2.20;;
2892;SDS011;1456;51.840;12.184;2022-12-18T01:25:01;0.47;;;0.47;;
2892;SDS011;1456;51.840;12.184;2022-12-18T01:27:27;0.40;;;0.40;;
2892;SDS011;1456;51.840;12.184;2022-12-18T01:29:53;1.03;;;1.00;;
2892;SDS011;1456;51.840;12.184;2022-12-18T01:32:19;1.27;;;0.93;;
2892;SDS011;1456;51.840;12.184;2022-12-18T01:34:45;1.77;;;1.70;;
2892;SDS011;1456;51.840;12.184;2022-12-18T01:37:11;0.50;;;0.50;;
2892;SDS011;1456;51.840;12.184;2022-12-18T01:39:36;0.60;;;0.60;;
2892;SDS011;1456;51.840;12.184;2022-12-18T01:42:02;0.53;;;0.53;;
2892;SDS011;1456;51.840;12.184;2022-12-18T01:47:18;1.27;;;1.17;;
2892;SDS011;1456;51.840;12.184;2022-12-18T01:49:48;1.37;;;1.37;;
2892;SDS011;1456;51.840;12.184;2022-12-18T01:52:14;1.30;;;1.30;;
2892;SDS011;1456;51.840;12.184;2022-12-18T01:54:41;0.80;;;0.80;;
2892;SDS011;1456;51.840;12.184;2022-12-18T01:57:07;7.20;;;2.73;;
2892;SDS011;1456;51.840;12.184;2022-12-18T01:59:33;2.83;;;1.57;;
2892;SDS011;1456;51.840;12.184;2022-12-18T02:02:01;2.53;;;2.47;;
2892;SDS011;1456;51.840;12.184;2022-12-18T02:04:28;0.80;;;0.80;;
2892;SDS011;1456;51.840;12.184;2022-12-18T02:10:07;1.63;;;1.53;;
2892;SDS011;1456;51.840;12.184;2022-12-18T02:18:36;3.27;;;3.10;;
2892;SDS011;1456;51.840;12.184;2022-12-18T02:24:02;0.53;;;0.53;;
2892;SDS011;1456;51.840;12.184;2022-12-18T02:26:40;0.50;;;0.50;;
2892;SDS011;1456;51.840;12.184;2022-12-18T02:29:12;0.97;;;0.97;;
2892;SDS011;1456;51.840;12.184;2022-12-18T02:31:51;0.60;;;0.60;;
2892;SDS011;1456;51.840;12.184;2022-12-18T02:34:19;0.90;;;0.90;;
2892;SDS011;1456;51.840;12.184;2022-12-18T02:36:51;0.70;;;0.70;;
2892;SDS011;1456;51.840;12.184;2022-12-18T02:39:19;0.43;;;0.43;;
2892;SDS011;1456;51.840;12.184;2022-12-18T02:41:47;0.80;;;0.80;;
2892;SDS011;1456;51.840;12.184;2022-12-18T02:44:13;0.80;;;0.80;;
2892;SDS011;1456;51.840;12.184;2022-12-18T02:46:39;0.70;;;0.70;;
2892;SDS011;1456;51.840;12.184;2022-12-18T03:03:42;1.70;;;1.20;;
2892;SDS011;1456;51.840;12.184;2022-12-18T03:08:44;2.17;;;2.10;;
2892;SDS011;1456;51.840;12.184;2022-12-18T03:11:16;1.00;;;1.00;;
2892;SDS011;1456;51.840;12.184;2022-12-18T03:14:02;1.27;;;1.27;;
2892;SDS011;1456;51.840;12.184;2022-12-18T03:16:31;0.97;;;0.97;;
2892;SDS011;1456;51.840;12.184;2022-12-18T03:19:06;3.50;;;2.97;;
2892;SDS011;1456;51.840;12.184;2022-12-18T03:21:44;1.20;;;1.10;;
2892;SDS011;1456;51.840;12.184;2022-12-18T03:24:12;1.23;;;1.23;;
2892;SDS011;1456;51.840;12.184;2022-12-18T03:26:42;0.60;;;0.60;;
2892;SDS011;1456;51.840;12.184;2022-12-18T03:29:18;2.70;;;2.60;;
2892;SDS011;1456;51.840;12.184;2022-12-18T03:31:51;2.50;;;2.30;;
2892;SDS011;1456;51.840;12.184;2022-12-18T03:34:26;0.60;;;0.60;;
2892;SDS011;1456;51.840;12.184;2022-12-18T03:36:55;1.60;;;1.60;;
2892;SDS011;1456;51.840;12.184;2022-12-18T03:39:22;1.63;;;1.63;;
2892;SDS011;1456;51.840;12.184;2022-12-18T03:44:28;1.00;;;1.00;;
2892;SDS011;1456;51.840;12.184;2022-12-18T03:52:57;1.30;;;1.27;;
2892;SDS011;1456;51.840;12.184;2022-12-18T03:55:34;1.23;;;1.23;;
2892;SDS011;1456;51.840;12.184;2022-12-18T03:58:02;1.00;;;1.00;;
2892;SDS011;1456;51.840;12.184;2022-12-18T04:00:30;0.93;;;0.93;;
2892;SDS011;1456;51.840;12.184;2022-12-18T04:02:57;0.90;;;0.90;;
2892;SDS011;1456;51.840;12.184;2022-12-18T04:05:25;1.27;;;1.17;;
2892;SDS011;1456;51.840;12.184;2022-12-18T04:07:53;1.67;;;1.67;;
2892;SDS011;1456;51.840;12.184;2022-12-18T04:10:20;1.00;;;1.00;;
2892;SDS011;1456;51.840;12.184;2022-12-18T04:12:45;4.63;;;1.13;;
2892;SDS011;1456;51.840;12.184;2022-12-18T04:15:12;0.53;;;0.53;;
2892;SDS011;1456;51.840;12.184;2022-12-18T04:17:38;0.87;;;0.87;;
2892;SDS011;1456;51.840;12.184;2022-12-18T04:20:13;0.40;;;0.40;;
2892;SDS011;1456;51.840;12.184;2022-12-18T04:22:39;1.40;;;1.40;;
2892;SDS011;1456;51.840;12.184;2022-12-18T04:25:05;0.70;;;0.70;;
2892;SDS011;1456;51.840;12.184;2022-12-18T04:27:30;1.50;;;1.50;;
2892;SDS011;1456;51.840;12.184;2022-12-18T04:29:56;1.53;;;1.40;;
2892;SDS011;1456;51.840;12.184;2022-12-18T04:32:22;1.93;;;1.37;;
2892;SDS011;1456;51.840;12.184;2022-12-18T04:34:47;0.90;;;0.90;;
2892;SDS011;1456;51.840;12.184;2022-12-18T04:37:13;0.90;;;0.70;;
2892;SDS011;1456;51.840;12.184;2022-12-18T04:39:39;1.30;;;1.30;;
2892;SDS011;1456;51.840;12.184;2022-12-18T04:42:04;8.13;;;3.60;;
2892;SDS011;1456;51.840;12.184;2022-12-18T04:44:30;1.10;;;1.10;;
2892;SDS011;1456;51.840;12.184;2022-12-18T04:46:56;0.60;;;0.60;;
2892;SDS011;1456;51.840;12.184;2022-12-18T04:49:21;1.47;;;1.43;;
2892;SDS011;1456;51.840;12.184;2022-12-18T04:51:47;2.30;;;1.77;;
2892;SDS011;1456;51.840;12.184;2022-12-18T04:54:13;0.83;;;0.83;;
2892;SDS011;1456;51.840;12.184;2022-12-18T04:56:38;0.97;;;0.97;;
2892;SDS011;1456;51.840;12.184;2022-12-18T04:59:05;1.27;;;1.27;;
2892;SDS011;1456;51.840;12.184;2022-12-18T05:01:34;0.60;;;0.60;;
2892;SDS011;1456;51.840;12.184;2022-12-18T05:04:00;0.70;;;0.70;;
2892;SDS011;1456;51.840;12.184;2022-12-18T05:06:26;1.90;;;1.87;;
2892;SDS011;1456;51.840;12.184;2022-12-18T05:08:52;1.47;;;1.37;;
2892;SDS011;1456;51.840;12.184;2022-12-18T05:11:17;1.80;;;1.40;;
2892;SDS011;1456;51.840;12.184;2022-12-18T05:13:44;1.33;;;1.23;;
2892;SDS011;1456;51.840;12.184;2022-12-18T05:16:10;1.47;;;1.47;;
2892;SDS011;1456;51.840;12.184;2022-12-18T05:18:36;1.33;;;1.20;;
2892;SDS011;1456;51.840;12.184;2022-12-18T05:21:02;2.33;;;2.20;;
2892;SDS011;1456;51.840;12.184;2022-12-18T05:23:28;3.50;;;2.10;;
2892;SDS011;1456;51.840;12.184;2022-12-18T05:25:55;0.90;;;0.90;;
2892;SDS011;1456;51.840;12.184;2022-12-18T05:28:23;3.80;;;2.60;;
2892;SDS011;1456;51.840;12.184;2022-12-18T05:30:50;1.83;;;1.73;;
2892;SDS011;1456;51.840;12.184;2022-12-18T05:33:17;2.60;;;2.50;;
2892;SDS011;1456;51.840;12.184;2022-12-18T05:35:44;1.10;;;1.10;;
2892;SDS011;1456;51.840;12.184;2022-12-18T05:38:15;2.60;;;2.40;;
2892;SDS011;1456;51.840;12.184;2022-12-18T05:40:43;1.00;;;1.00;;
2892;SDS011;1456;51.840;12.184;2022-12-18T05:43:09;1.10;;;1.10;;
2892;SDS011;1456;51.840;12.184;2022-12-18T05:45:38;0.70;;;0.70;;
2892;SDS011;1456;51.840;12.184;2022-12-18T05:48:04;1.83;;;1.83;;
2892;SDS011;1456;51.840;12.184;2022-12-18T05:50:33;3.77;;;3.40;;
2892;SDS011;1456;51.840;12.184;2022-12-18T05:53:03;3.03;;;1.47;;
2892;SDS011;1456;51.840;12.184;2022-12-18T05:55:32;2.40;;;1.93;;
2892;SDS011;1456;51.840;12.184;2022-12-18T05:58:02;1.83;;;1.83;;
2892;SDS011;1456;51.840;12.184;2022-12-18T06:00:29;3.17;;;3.07;;
2892;SDS011;1456;51.840;12.184;2022-12-18T06:02:55;1.80;;;1.80;;
2892;SDS011;1456;51.840;12.184;2022-12-18T06:05:21;2.57;;;2.57;;
2892;SDS011;1456;51.840;12.184;2022-12-18T06:07:47;2.20;;;2.20;;
2892;SDS011;1456;51.840;12.184;2022-12-18T06:10:13;1.97;;;1.80;;
2892;SDS011;1456;51.840;12.184;2022-12-18T06:12:38;1.27;;;1.27;;
2892;SDS011;1456;51.840;12.184;2022-12-18T06:15:04;2.47;;;2.37;;
2892;SDS011;1456;51.840;12.184;2022-12-18T06:17:31;2.33;;;2.13;;
2892;SDS011;1456;51.840;12.184;2022-12-18T06:19:57;1.43;;;1.43;;
2892;SDS011;1456;51.840;12.184;2022-12-18T06:22:23;1.63;;;1.53;;
2892;SDS011;1456;51.840;12.184;2022-12-18T06:24:49;3.70;;;2.20;;
2892;SDS011;1456;51.840;12.184;2022-12-18T06:27:15;1.37;;;1.30;;
2892;SDS011;1456;51.840;12.184;2022-12-18T06:29:42;2.00;;;1.90;;
2892;SDS011;1456;51.840;12.184;2022-12-18T06:32:08;2.43;;;2.43;;
2892;SDS011;1456;51.840;12.184;2022-12-18T06:34:34;2.07;;;1.80;;
2892;SDS011;1456;51.840;12.184;2022-12-18T06:37:02;1.23;;;1.20;;
2892;SDS011;1456;51.840;12.184;2022-12-18T06:39:28;3.50;;;3.17;;
2892;SDS011;1456;51.840;12.184;2022-12-18T06:41:54;1.53;;;1.53;;
2892;SDS011;1456;51.840;12.184;2022-12-18T06:44:20;1.17;;;1.17;;
2892;SDS011;1456;51.840;12.184;2022-12-18T06:46:47;2.33;;;2.30;;
2892;SDS011;1456;51.840;12.184;2022-12-18T06:49:12;1.63;;;1.63;;
2892;SDS011;1456;51.840;12.184;2022-12-18T06:51:38;1.43;;;1.43;;
2892;SDS011;1456;51.840;12.184;2022-12-18T06:54:04;1.20;;;1.20;;
2892;SDS011;1456;51.840;12.184;2022-12-18T06:56:30;1.73;;;1.67;;
2892;SDS011;1456;51.840;12.184;2022-12-18T06:58:55;1.63;;;1.50;;
2892;SDS011;1456;51.840;12.184;2022-12-18T07:01:22;1.37;;;1.33;;
2892;SDS011;1456;51.840;12.184;2022-12-18T07:03:51;4.70;;;4.37;;
2892;SDS011;1456;51.840;12.184;2022-12-18T07:06:19;0.93;;;0.70;;
2892;SDS011;1456;51.840;12.184;2022-12-18T07:08:46;3.30;;;3.17;;
2892;SDS011;1456;51.840;12.184;2022-12-18T07:11:12;1.30;;;1.30;;
2892;SDS011;1456;51.840;12.184;2022-12-18T07:13:38;3.40;;;2.80;;
2892;SDS011;1456;51.840;12.184;2022-12-18T07:16:14;4.10;;;3.80;;
2892;SDS011;1456;51.840;12.184;2022-12-18T07:18:44;5.27;;;4.80;;
2892;SDS011;1456;51.840;12.184;2022-12-18T07:21:11;1.20;;;1.20;;
2892;SDS011;1456;51.840;12.184;2022-12-18T07:23:38;5.73;;;3.60;;
2892;SDS011;1456;51.840;12.184;2022-12-18T07:26:10;6.37;;;6.07;;
2892;SDS011;1456;51.840;12.184;2022-12-18T07:28:37;4.10;;;3.90;;
2892;SDS011;1456;51.840;12.184;2022-12-18T07:31:05;3.30;;;3.20;;
2892;SDS011;1456;51.840;12.184;2022-12-18T07:33:32;7.70;;;7.13;;
2892;SDS011;1456;51.840;12.184;2022-12-18T07:36:01;3.40;;;3.30;;
2892;SDS011;1456;51.840;12.184;2022-12-18T07:38:30;2.60;;;2.50;;
2892;SDS011;1456;51.840;12.184;2022-12-18T07:41:01;2.73;;;2.63;;
2892;SDS011;1456;51.840;12.184;2022-12-18T07:43:31;4.33;;;4.23;;
2892;SDS011;1456;51.840;12.184;2022-12-18T07:45:57;1.93;;;1.93;;
2892;SDS011;1456;51.840;12.184;2022-12-18T07:48:23;1.20;;;1.20;;
2892;SDS011;1456;51.840;12.184;2022-12-18T07:50:49;0.97;;;0.97;;
2892;SDS011;1456;51.840;12.184;2022-12-18T07:53:14;3.00;;;2.73;;
2892;SDS011;1456;51.840;12.184;2022-12-18T07:55:40;1.97;;;1.87;;
2892;SDS011;1456;51.840;12.184;2022-12-18T07:58:06;2.37;;;2.30;;
2892;SDS011;1456;51.840;12.184;2022-12-18T08:00:33;1.83;;;1.73;;
2892;SDS011;1456;51.840;12.184;2022-12-18T08:02:59;2.20;;;2.20;;
2892;SDS011;1456;51.840;12.184;2022-12-18T08:05:25;2.13;;;2.07;;
2892;SDS011;1456;51.840;12.184;2022-12-18T08:07:52;2.60;;;2.50;;
2892;SDS011;1456;51.840;12.184;2022-12-18T08:10:19;3.33;;;3.13;;
2892;SDS011;1456;51.840;12.184;2022-12-18T08:12:45;1.57;;;1.57;;
2892;SDS011;1456;51.840;12.184;2022-12-18T08:15:10;1.37;;;1.37;;
2892;SDS011;1456;51.840;12.184;2022-12-18T08:17:36;3.33;;;3.27;;
2892;SDS011;1456;51.840;12.184;2022-12-18T08:20:02;5.43;;;5.20;;
2892;SDS011;1456;51.840;12.184;2022-12-18T08:22:28;4.97;;;4.77;;
2892;SDS011;1456;51.840;12.184;2022-12-18T08:24:53;6.63;;;2.10;;
2892;SDS011;1456;51.840;12.184;2022-12-18T08:27:19;1.50;;;1.50;;
2892;SDS011;1456;51.840;12.184;2022-12-18T08:29:45;0.80;;;0.80;;
2892;SDS011;1456;51.840;12.184;2022-12-18T08:32:10;2.00;;;1.90;;
2892;SDS011;1456;51.840;12.184;2022-12-18T08:34:36;0.70;;;0.70;;
2892;SDS011;1456;51.840;12.184;2022-12-18T08:37:02;1.50;;;1.50;;
2892;SDS011;1456;51.840;12.184;2022-12-18T08:39:27;0.60;;;0.60;;
2892;SDS011;1456;51.840;12.184;2022-12-18T08:41:53;1.70;;;1.60;;
2892;SDS011;1456;51.840;12.184;2022-12-18T08:44:37;2.83;;;2.63;;
2892;SDS011;1456;51.840;12.184;2022-12-18T08:47:03;1.13;;;1.13;;
2892;SDS011;1456;51.840;12.184;2022-12-18T08:49:32;0.70;;;0.70;;
2892;SDS011;1456;51.840;12.184;2022-12-18T08:51:58;1.03;;;1.03;;
2892;SDS011;1456;51.840;12.184;2022-12-18T08:54:24;1.33;;;1.23;;
2892;SDS011;1456;51.840;12.184;2022-12-18T08:56:50;0.90;;;0.90;;
2892;SDS011;1456;51.840;12.184;2022-12-18T08:59:17;0.50;;;0.50;;
2892;SDS011;1456;51.840;12.184;2022-12-18T09:01:43;1.43;;;1.43;;
2892;SDS011;1456;51.840;12.184;2022-12-18T09:04:09;4.90;;;3.37;;
2892;SDS011;1456;51.840;12.184;2022-12-18T09:06:35;3.83;;;3.63;;
2892;SDS011;1456;51.840;12.184;2022-12-18T09:09:02;2.67;;;2.57;;
2892;SDS011;1456;51.840;12.184;2022-12-18T09:11:29;7.70;;;4.80;;
2892;SDS011;1456;51.840;12.184;2022-12-18T09:13:55;2.30;;;2.20;;
2892;SDS011;1456;51.840;12.184;2022-12-18T09:16:22;3.17;;;2.97;;
2892;SDS011;1456;51.840;12.184;2022-12-18T09:18:49;2.03;;;1.90;;
2892;SDS011;1456;51.840;12.184;2022-12-18T09:21:16;0.70;;;0.70;;
2892;SDS011;1456;51.840;12.184;2022-12-18T09:23:43;0.70;;;0.70;;
2892;SDS011;1456;51.840;12.184;2022-12-18T09:26:13;1.17;;;1.07;;
2892;SDS011;1456;51.840;12.184;2022-12-18T09:28:39;1.03;;;1.03;;
2892;SDS011;1456;51.840;12.184;2022-12-18T09:31:06;2.00;;;1.53;;
2892;SDS011;1456;51.840;12.184;2022-12-18T09:33:33;4.33;;;2.90;;
2892;SDS011;1456;51.840;12.184;2022-12-18T09:36:01;0.93;;;0.93;;
2892;SDS011;1456;51.840;12.184;2022-12-18T09:38:28;1.53;;;1.33;;
2892;SDS011;1456;51.840;12.184;2022-12-18T09:40:56;1.67;;;1.60;;
2892;SDS011;1456;51.840;12.184;2022-12-18T09:43:35;2.03;;;2.03;;
2892;SDS011;1456;51.840;12.184;2022-12-18T09:46:08;1.20;;;1.20;;
2892;SDS011;1456;51.840;12.184;2022-12-18T09:48:41;1.63;;;1.63;;
2892;SDS011;1456;51.840;12.184;2022-12-18T09:51:18;5.03;;;2.13;;
2892;SDS011;1456;51.840;12.184;2022-12-18T09:53:50;3.33;;;2.80;;
2892;SDS011;1456;51.840;12.184;2022-12-18T09:56:22;1.47;;;1.47;;
2892;SDS011;1456;51.840;12.184;2022-12-18T09:58:55;3.07;;;2.87;;
2892;SDS011;1456;51.840;12.184;2022-12-18T10:01:29;17.73;;;2.30;;
2892;SDS011;1456;51.840;12.184;2022-12-18T10:03:56;3.40;;;1.63;;
2892;SDS011;1456;51.840;12.184;2022-12-18T10:09:02;3.07;;;2.97;;
2892;SDS011;1456;51.840;12.184;2022-12-18T10:17:31;0.90;;;0.90;;
2892;SDS011;1456;51.840;12.184;2022-12-18T10:20:07;1.33;;;1.33;;
2892;SDS011;1456;51.840;12.184;2022-12-18T10:23:04;0.80;;;0.80;;
2892;SDS011;1456;51.840;12.184;2022-12-18T10:28:26;0.33;;;0.33;;
2892;SDS011;1456;51.840;12.184;2022-12-18T10:30:55;2.77;;;2.00;;
2892;SDS011;1456;51.840;12.184;2022-12-18T10:33:22;3.27;;;1.17;;
2892;SDS011;1456;51.840;12.184;2022-12-18T10:35:52;1.07;;;1.07;;
2892;SDS011;1456;51.840;12.184;2022-12-18T10:43:32;1.13;;;1.13;;
2892;SDS011;1456;51.840;12.184;2022-12-18T10:48:55;1.63;;;1.63;;
2892;SDS011;1456;51.840;12.184;2022-12-18T10:51:25;0.97;;;0.97;;
2892;SDS011;1456;51.840;12.184;2022-12-18T10:56:40;2.10;;;2.00;;
2892;SDS011;1456;51.840;12.184;2022-12-18T10:59:07;1.30;;;1.30;;
2892;SDS011;1456;51.840;12.184;2022-12-18T11:04:18;0.77;;;0.77;;
2892;SDS011;1456;51.840;12.184;2022-12-18T11:09:22;2.57;;;2.47;;
2892;SDS011;1456;51.840;12.184;2022-12-18T11:11:53;2.53;;;1.90;;
2892;SDS011;1456;51.840;12.184;2022-12-18T11:14:22;0.83;;;0.83;;
2892;SDS011;1456;51.840;12.184;2022-12-18T11:16:50;5.40;;;4.83;;
2892;SDS011;1456;51.840;12.184;2022-12-18T11:19:36;0.70;;;0.70;;
2892;SDS011;1456;51.840;12.184;2022-12-18T11:22:24;5.80;;;1.53;;
2892;SDS011;1456;51.840;12.184;2022-12-18T11:24:59;2.17;;;2.07;;
2892;SDS011;1456;51.840;12.184;2022-12-18T11:27:25;2.77;;;2.37;;
2892;SDS011;1456;51.840;12.184;2022-12-18T11:29:52;2.63;;;2.60;;
2892;SDS011;1456;51.840;12.184;2022-12-18T11:32:24;2.60;;;2.60;;
2892;SDS011;1456;51.840;12.184;2022-12-18T11:35:03;2.33;;;2.27;;
2892;SDS011;1456;51.840;12.184;2022-12-18T11:37:37;1.00;;;1.00;;
2892;SDS011;1456;51.840;12.184;2022-12-18T11:40:12;2.13;;;2.13;;
2892;SDS011;1456;51.840;12.184;2022-12-18T11:45:24;3.10;;;3.10;;
2892;SDS011;1456;51.840;12.184;2022-12-18T11:47:56;4.10;;;3.97;;
2892;SDS011;1456;51.840;12.184;2022-12-18T11:50:44;5.00;;;4.90;;
2892;SDS011;1456;51.840;12.184;2022-12-18T11:53:14;4.20;;;4.20;;
2892;SDS011;1456;51.840;12.184;2022-12-18T12:01:50;5.27;;;5.07;;
2892;SDS011;1456;51.840;12.184;2022-12-18T12:07:18;6.47;;;6.37;;
2892;SDS011;1456;51.840;12.184;2022-12-18T12:10:15;5.40;;;5.40;;
2892;SDS011;1456;51.840;12.184;2022-12-18T12:20:41;6.20;;;6.20;;
2892;SDS011;1456;51.840;12.184;2022-12-18T12:23:20;7.97;;;7.87;;
2892;SDS011;1456;51.840;12.184;2022-12-18T12:26:11;6.53;;;6.13;;
2892;SDS011;1456;51.840;12.184;2022-12-18T12:37:25;9.03;;;8.73;;
2892;SDS011;1456;51.840;12.184;2022-12-18T12:40:05;5.30;;;5.20;;
2892;SDS011;1456;51.840;12.184;2022-12-18T12:42:32;5.17;;;5.17;;
2892;SDS011;1456;51.840;12.184;2022-12-18T12:45:46;6.70;;;6.53;;
2892;SDS011;1456;51.840;12.184;2022-12-18T12:48:55;7.40;;;7.23;;
2892;SDS011;1456;51.840;12.184;2022-12-18T12:51:02;7.23;;;6.93;;
2892;SDS011;1456;51.840;12.184;2022-12-18T12:53:36;2.87;;;2.30;;
2892;SDS011;1456;51.840;12.184;2022-12-18T12:56:04;1.93;;;1.93;;
2892;SDS011;1456;51.840;12.184;2022-12-18T13:01:07;5.67;;;5.67;;
2892;SDS011;1456;51.840;12.184;2022-12-18T13:06:13;4.53;;;4.20;;
2892;SDS011;1456;51.840;12.184;2022-12-18T13:08:59;6.50;;;6.00;;
2892;SDS011;1456;51.840;12.184;2022-12-18T13:11:47;2.70;;;2.60;;
2892;SDS011;1456;51.840;12.184;2022-12-18T13:14:34;10.00;;;8.90;;
2892;SDS011;1456;51.840;12.184;2022-12-18T13:19:50;9.80;;;9.40;;
2892;SDS011;1456;51.840;12.184;2022-12-18T13:22:43;8.50;;;8.30;;
2892;SDS011;1456;51.840;12.184;2022-12-18T13:28:16;7.20;;;7.10;;
2892;SDS011;1456;51.840;12.184;2022-12-18T13:38:25;9.53;;;9.30;;
2892;SDS011;1456;51.840;12.184;2022-12-18T13:43:49;10.87;;;10.37;;
2892;SDS011;1456;51.840;12.184;2022-12-18T13:51:40;9.67;;;9.47;;
2892;SDS011;1456;51.840;12.184;2022-12-18T13:57:01;7.10;;;7.00;;
2892;SDS011;1456;51.840;12.184;2022-12-18T13:59:35;6.60;;;6.50;;
2892;SDS011;1456;51.840;12.184;2022-12-18T14:02:24;6.03;;;5.80;;
2892;SDS011;1456;51.840;12.184;2022-12-18T14:04:52;3.00;;;3.00;;
2892;SDS011;1456;51.840;12.184;2022-12-18T14:07:19;3.63;;;3.53;;
2892;SDS011;1456;51.840;12.184;2022-12-18T14:09:57;3.40;;;3.30;;
2892;SDS011;1456;51.840;12.184;2022-12-18T14:12:26;2.97;;;2.00;;
2892;SDS011;1456;51.840;12.184;2022-12-18T14:15:35;2.50;;;2.50;;
2892;SDS011;1456;51.840;12.184;2022-12-18T14:18:01;2.10;;;2.07;;
2892;SDS011;1456;51.840;12.184;2022-12-18T14:20:48;2.20;;;2.10;;
2892;SDS011;1456;51.840;12.184;2022-12-18T14:23:28;1.23;;;1.23;;
2892;SDS011;1456;51.840;12.184;2022-12-18T14:25:55;3.30;;;3.20;;
2892;SDS011;1456;51.840;12.184;2022-12-18T14:28:20;2.30;;;2.30;;
2892;SDS011;1456;51.840;12.184;2022-12-18T14:30:51;1.10;;;1.10;;
2892;SDS011;1456;51.840;12.184;2022-12-18T14:38:31;2.00;;;1.53;;
2892;SDS011;1456;51.840;12.184;2022-12-18T14:41:05;1.70;;;1.43;;
2892;SDS011;1456;51.840;12.184;2022-12-18T14:43:32;0.60;;;0.60;;
2892;SDS011;1456;51.840;12.184;2022-12-18T14:46:01;2.73;;;2.50;;
2892;SDS011;1456;51.840;12.184;2022-12-18T14:48:39;2.00;;;2.00;;
2892;SDS011;1456;51.840;12.184;2022-12-18T14:53:36;1.17;;;1.17;;
2892;SDS011;1456;51.840;12.184;2022-12-18T14:56:13;0.60;;;0.60;;
2892;SDS011;1456;51.840;12.184;2022-12-18T14:58:48;0.70;;;0.70;;
2892;SDS011;1456;51.840;12.184;2022-12-18T15:03:59;1.03;;;1.03;;
2892;SDS011;1456;51.840;12.184;2022-12-18T15:06:28;1.70;;;1.60;;
2892;SDS011;1456;51.840;12.184;2022-12-18T15:08:59;0.63;;;0.63;;
2892;SDS011;1456;51.840;12.184;2022-12-18T15:11:48;1.77;;;1.40;;
2892;SDS011;1456;51.840;12.184;2022-12-18T15:17:03;1.40;;;1.37;;
2892;SDS011;1456;51.840;12.184;2022-12-18T15:19:44;0.50;;;0.50;;
2892;SDS011;1456;51.840;12.184;2022-12-18T15:22:18;0.57;;;0.57;;
2892;SDS011;1456;51.840;12.184;2022-12-18T15:24:56;0.60;;;0.60;;
2892;SDS011;1456;51.840;12.184;2022-12-18T15:27:24;0.60;;;0.60;;
2892;SDS011;1456;51.840;12.184;2022-12-18T15:32:33;2.30;;;1.13;;
2892;SDS011;1456;51.840;12.184;2022-12-18T15:35:08;0.50;;;0.50;;
2892;SDS011;1456;51.840;12.184;2022-12-18T15:37:39;0.40;;;0.40;;
2892;SDS011;1456;51.840;12.184;2022-12-18T15:40:06;0.63;;;0.63;;
2892;SDS011;1456;51.840;12.184;2022-12-18T15:42:33;0.40;;;0.40;;
2892;SDS011;1456;51.840;12.184;2022-12-18T15:45:17;0.40;;;0.40;;
2892;SDS011;1456;51.840;12.184;2022-12-18T15:47:43;0.40;;;0.40;;
2892;SDS011;1456;51.840;12.184;2022-12-18T15:50:09;0.40;;;0.40;;
2892;SDS011;1456;51.840;12.184;2022-12-18T15:52:39;2.43;;;2.17;;
2892;SDS011;1456;51.840;12.184;2022-12-18T15:55:10;0.60;;;0.60;;
2892;SDS011;1456;51.840;12.184;2022-12-18T15:57:59;0.53;;;0.53;;
2892;SDS011;1456;51.840;12.184;2022-12-18T16:00:25;0.50;;;0.50;;
2892;SDS011;1456;51.840;12.184;2022-12-18T16:02:50;1.57;;;1.47;;
2892;SDS011;1456;51.840;12.184;2022-12-18T16:05:17;0.40;;;0.40;;
2892;SDS011;1456;51.840;12.184;2022-12-18T16:07:44;1.10;;;1.10;;
2892;SDS011;1456;51.840;12.184;2022-12-18T16:10:10;0.87;;;0.87;;
2892;SDS011;1456;51.840;12.184;2022-12-18T16:12:36;1.10;;;1.10;;
2892;SDS011;1456;51.840;12.184;2022-12-18T16:15:02;4.13;;;1.63;;
2892;SDS011;1456;51.840;12.184;2022-12-18T16:17:30;0.67;;;0.67;;
2892;SDS011;1456;51.840;12.184;2022-12-18T16:19:56;0.73;;;0.73;;
2892;SDS011;1456;51.840;12.184;2022-12-18T16:22:25;1.47;;;1.30;;
2892;SDS011;1456;51.840;12.184;2022-12-18T16:24:53;17.63;;;5.60;;
2892;SDS011;1456;51.840;12.184;2022-12-18T16:27:20;0.30;;;0.30;;
2892;SDS011;1456;51.840;12.184;2022-12-18T16:29:47;0.60;;;0.60;;
2892;SDS011;1456;51.840;12.184;2022-12-18T16:32:14;0.40;;;0.40;;
2892;SDS011;1456;51.840;12.184;2022-12-18T16:34:42;0.30;;;0.30;;
2892;SDS011;1456;51.840;12.184;2022-12-18T16:37:09;0.40;;;0.40;;
2892;SDS011;1456;51.840;12.184;2022-12-18T16:39:36;0.70;;;0.70;;
2892;SDS011;1456;51.840;12.184;2022-12-18T16:42:03;3.63;;;3.53;;
2892;SDS011;1456;51.840;12.184;2022-12-18T16:44:35;0.80;;;0.70;;
2892;SDS011;1456;51.840;12.184;2022-12-18T16:47:00;2.33;;;2.23;;
2892;SDS011;1456;51.840;12.184;2022-12-18T16:49:27;0.83;;;0.83;;
2892;SDS011;1456;51.840;12.184;2022-12-18T16:51:53;0.40;;;0.40;;
2892;SDS011;1456;51.840;12.184;2022-12-18T16:54:19;0.70;;;0.70;;
2892;SDS011;1456;51.840;12.184;2022-12-18T16:56:46;1.07;;;1.07;;
2892;SDS011;1456;51.840;12.184;2022-12-18T16:59:14;2.97;;;2.23;;
2892;SDS011;1456;51.840;12.184;2022-12-18T17:01:40;1.07;;;1.07;;
2892;SDS011;1456;51.840;12.184;2022-12-18T17:04:06;1.77;;;1.73;;
2892;SDS011;1456;51.840;12.184;2022-12-18T17:06:33;1.07;;;1.07;;
2892;SDS011;1456;51.840;12.184;2022-12-18T17:09:04;1.40;;;1.40;;
2892;SDS011;1456;51.840;12.184;2022-12-18T17:11:33;1.80;;;1.80;;
2892;SDS011;1456;51.840;12.184;2022-12-18T17:14:04;6.50;;;1.47;;
2892;SDS011;1456;51.840;12.184;2022-12-18T17:16:32;1.70;;;1.07;;
2892;SDS011;1456;51.840;12.184;2022-12-18T17:18:58;0.30;;;0.30;;
2892;SDS011;1456;51.840;12.184;2022-12-18T17:21:24;1.47;;;1.40;;
2892;SDS011;1456;51.840;12.184;2022-12-18T17:23:49;2.57;;;2.13;;
2892;SDS011;1456;51.840;12.184;2022-12-18T17:26:15;0.60;;;0.60;;
2892;SDS011;1456;51.840;12.184;2022-12-18T17:28:41;1.60;;;0.97;;
2892;SDS011;1456;51.840;12.184;2022-12-18T17:31:11;0.40;;;0.30;;
2892;SDS011;1456;51.840;12.184;2022-12-18T17:33:38;0.30;;;0.30;;
2892;SDS011;1456;51.840;12.184;2022-12-18T17:36:04;1.33;;;1.23;;